Lynchburg Regional Preston Glenn Field
KLYH : now visible

Airfield :











YOU CAN JOIN US ON...

 
LOGIN :

Register | Disclaimer

   EN    FR    IT 

 









Legend :    VFR   Marginal VFR   IFR   Intensive IFR   Very Intensive IFR
Visi :
Ceiling :
>= 8 km
>= 3000ft
5 to 8 km
1000 to 3000 ft
1500m to 5 km
500 to 1000 ft
800 to 1500m
200 to 500 ft
< 800m
< 200 ft
Symbols :   Thunderstorms  Fog  Heavy snow  Heavy precipitations  Wind > 20 kt






- Airport Elevation : 938 ft
- IATA code : LYH


KLYH - Lynchburg Regional Preston Glenn Field

CURRENT METAR :
  • 291254Z 00000KT 10SM SCT060 23/15 A3029 RMK AO2 SLP249 T02280150

EXPIRED METARs :
  • 291154Z 04003KT 10SM FEW055 22/16 A3028 RMK AO2 SLP243 T02170156 10217 20150 53007
  • 291054Z 00000KT 10SM CLR 18/14 A3027 RMK AO2 SLP241 T01780144
  • 290954Z AUTO 00000KT 10SM CLR 15/13 A3026 RMK AO2 SLP240 T01500133

TAF KLYH
Valid from the 29 at 12:00 until the 30 at 12:00 UTC


291120Z 2912/3012 17005KT P6SM FEW050
FM300000 00000KT P6SM BKN250
KZDC FIR / North America



MET'MAP, your aeronautical weather chart ! - Copyright ORBIFLY December 2007 - Disclaimer

ORBIFLY MET'MAP TEAM :

Programming & Development : Alexandra Zaïnal
Original concept : Baudouin d'Aumeries
Technical & hardware support : Manuel Goepfert
Assistance : Marc-Olivier Méhu




SOURCES & CREDITS :

   NOAA       Earth
Advisory